Time;durP1;ratioP1;P1;durP2;ratioP2;P2;SDS_P1;SDS_P2;PMS_P1;PMS_P2;Temp;Humidity;BMP_temperature;BMP_pressure;BME280_temperature;BME280_humidity;BME280_pressure;Samples;Min_cycle;Max_cycle;Signal;HPM_P1;HPM_P2
2024/03/23 00:00:35;;;;;;;1.37;0.60;;;;;;;;;;4920579;29;20670;-91
2024/03/23 00:03:01;;;;;;;3.50;2.07;;;;;;;;;;4921078;29;20662;-89
2024/03/23 00:05:28;;;;;;;2.63;1.70;;;;;;;;;;4920968;28;20206;-89
2024/03/23 00:07:54;;;;;;;5.20;1.03;;;;;;;;;;4937200;29;20202;-89
2024/03/23 00:10:22;;;;;;;1.43;0.83;;;;;;;;;;4900751;29;20262;-89
2024/03/23 00:12:48;;;;;;;1.83;1.73;;;;;;;;;;4900501;29;20416;-89
2024/03/23 00:15:15;;;;;;;6.17;1.73;;;;;;;;;;4885483;29;20261;-92
2024/03/23 00:17:42;;;;;;;6.67;1.57;;;;;;;;;;4862742;29;20236;-89
2024/03/23 00:20:08;;;;;;;0.30;0.30;;;;;;;;;;4863472;29;20216;-90
2024/03/23 00:22:35;;;;;;;0.47;0.47;;;;;;;;;;4863403;29;20239;-90
2024/03/23 00:25:01;;;;;;;1.80;1.70;;;;;;;;;;4863228;29;20315;-89
2024/03/23 00:27:28;;;;;;;1.30;1.00;;;;;;;;;;4863215;29;20240;-89
2024/03/23 00:29:55;;;;;;;1.20;0.77;;;;;;;;;;4847800;29;20242;-90
2024/03/23 00:32:21;;;;;;;1.80;1.70;;;;;;;;;;4863764;29;20663;-89
2024/03/23 00:34:48;;;;;;;0.50;0.50;;;;;;;;;;4847924;29;20236;-91
2024/03/23 00:37:14;;;;;;;6.17;2.53;;;;;;;;;;4863047;29;20235;-91
2024/03/23 00:39:41;;;;;;;0.47;0.47;;;;;;;;;;4863092;29;20262;-90
2024/03/23 00:42:08;;;;;;;1.23;1.23;;;;;;;;;;4881019;29;20309;-89
2024/03/23 00:44:34;;;;;;;1.40;0.83;;;;;;;;;;4884645;29;20225;-93
2024/03/23 00:47:01;;;;;;;0.47;0.47;;;;;;;;;;4885629;29;20211;-90
2024/03/23 00:49:27;;;;;;;0.90;0.90;;;;;;;;;;4912077;29;20293;-89
2024/03/23 00:51:54;;;;;;;0.30;0.30;;;;;;;;;;4919988;29;20241;-89
2024/03/23 00:54:20;;;;;;;5.00;1.87;;;;;;;;;;4919751;29;20411;-90
2024/03/23 00:56:46;;;;;;;0.67;0.67;;;;;;;;;;4904326;29;20222;-90
2024/03/23 00:59:13;;;;;;;1.97;1.23;;;;;;;;;;4905189;29;20205;-91
2024/03/23 01:01:39;;;;;;;3.00;1.70;;;;;;;;;;4919914;29;20237;-90
2024/03/23 01:04:06;;;;;;;1.77;1.30;;;;;;;;;;4919912;29;20743;-90
2024/03/23 01:06:32;;;;;;;1.97;1.47;;;;;;;;;;4919739;29;20386;-90
2024/03/23 01:08:58;;;;;;;0.50;0.50;;;;;;;;;;4904114;29;20234;-90
2024/03/23 01:11:24;;;;;;;3.03;1.47;;;;;;;;;;4904809;29;20305;-90
2024/03/23 01:13:50;;;;;;;0.70;0.70;;;;;;;;;;4920036;29;20237;-90
2024/03/23 01:16:16;;;;;;;0.70;0.70;;;;;;;;;;4919396;29;20408;-91
2024/03/23 01:18:42;;;;;;;0.40;0.40;;;;;;;;;;4903758;29;20237;-90
2024/03/23 01:21:08;;;;;;;1.13;0.63;;;;;;;;;;4919534;29;20237;-90
2024/03/23 01:23:34;;;;;;;0.30;0.30;;;;;;;;;;4919621;29;20264;-91
2024/03/23 01:26:01;;;;;;;0.40;0.40;;;;;;;;;;4920139;29;20198;-90
2024/03/23 01:28:27;;;;;;;0.40;0.40;;;;;;;;;;4919625;29;20237;-90
2024/03/23 01:30:53;;;;;;;0.60;0.60;;;;;;;;;;4903461;29;20288;-89
2024/03/23 01:33:19;;;;;;;2.07;0.97;;;;;;;;;;4919467;29;20269;-91
2024/03/23 01:35:45;;;;;;;0.70;0.70;;;;;;;;;;4904136;28;20208;-91
2024/03/23 01:38:11;;;;;;;0.40;0.40;;;;;;;;;;4904325;29;20225;-92
2024/03/23 01:40:37;;;;;;;2.43;2.33;;;;;;;;;;4919313;29;20281;-91
2024/03/23 01:43:05;;;;;;;0.47;0.47;;;;;;;;;;4903932;29;20242;-91
2024/03/23 01:45:32;;;;;;;3.53;1.67;;;;;;;;;;4903838;29;20241;-90
2024/03/23 01:47:59;;;;;;;0.40;0.40;;;;;;;;;;4935115;29;20238;-90
2024/03/23 01:50:25;;;;;;;0.40;0.40;;;;;;;;;;4919509;29;20216;-90
2024/03/23 01:52:52;;;;;;;0.30;0.30;;;;;;;;;;4919578;29;20242;-90
2024/03/23 01:55:21;;;;;;;0.70;0.70;;;;;;;;;;4903826;29;20639;-90
2024/03/23 01:57:47;;;;;;;1.03;1.03;;;;;;;;;;4903507;29;20241;-92
2024/03/23 02:00:14;;;;;;;0.30;0.30;;;;;;;;;;4919124;29;20249;-89
2024/03/23 02:02:44;;;;;;;0.90;0.90;;;;;;;;;;4918915;29;20221;-90
2024/03/23 02:05:10;;;;;;;0.40;0.40;;;;;;;;;;4919684;29;20212;-90
2024/03/23 02:07:36;;;;;;;12.77;0.73;;;;;;;;;;4918733;29;20267;-90
2024/03/23 02:10:02;;;;;;;1.03;1.00;;;;;;;;;;4934428;29;20241;-91
2024/03/23 02:12:28;;;;;;;0.60;0.60;;;;;;;;;;4903474;29;20240;-90
2024/03/23 02:14:54;;;;;;;1.90;1.77;;;;;;;;;;4919055;29;20234;-90
2024/03/23 02:17:20;;;;;;;0.57;0.57;;;;;;;;;;4919272;29;20226;-89
2024/03/23 02:19:47;;;;;;;0.80;0.80;;;;;;;;;;4919137;29;20245;-90
2024/03/23 02:22:13;;;;;;;0.87;0.87;;;;;;;;;;4903087;29;20234;-90
2024/03/23 02:24:39;;;;;;;0.67;0.53;;;;;;;;;;4903332;29;20241;-92
2024/03/23 02:27:05;;;;;;;1.07;1.07;;;;;;;;;;4935113;29;20265;-89
2024/03/23 02:29:31;;;;;;;13.83;1.27;;;;;;;;;;4919622;29;20297;-91
2024/03/23 02:31:58;;;;;;;1.63;0.63;;;;;;;;;;4919551;29;20232;-90
2024/03/23 02:34:25;;;;;;;5.97;1.17;;;;;;;;;;4903380;29;20234;-90
2024/03/23 02:36:51;;;;;;;0.17;0.17;;;;;;;;;;4903681;29;20681;-91
2024/03/23 02:39:17;;;;;;;0.77;0.77;;;;;;;;;;4917487;29;20237;-91
2024/03/23 02:41:43;;;;;;;0.50;0.50;;;;;;;;;;4919535;29;20213;-92
2024/03/23 02:44:11;;;;;;;2.20;0.87;;;;;;;;;;4921480;29;20210;-92
2024/03/23 02:46:38;;;;;;;0.83;0.83;;;;;;;;;;4907181;29;20686;-91
2024/03/23 02:49:04;;;;;;;0.93;0.60;;;;;;;;;;4906713;29;20238;-91
2024/03/23 02:51:33;;;;;;;1.17;1.00;;;;;;;;;;4922293;29;20242;-89
2024/03/23 02:53:59;;;;;;;11.43;0.67;;;;;;;;;;4922076;29;20234;-88
2024/03/23 02:56:25;;;;;;;0.83;0.53;;;;;;;;;;4922865;29;20241;-89
2024/03/23 02:58:51;;;;;;;1.50;0.60;;;;;;;;;;4922561;29;20241;-89
2024/03/23 03:01:17;;;;;;;0.87;0.87;;;;;;;;;;4921963;29;20238;-89
2024/03/23 03:03:43;;;;;;;0.27;0.27;;;;;;;;;;4906502;29;20268;-89
2024/03/23 03:06:10;;;;;;;0.20;0.20;;;;;;;;;;4922332;29;20234;-90
2024/03/23 03:08:36;;;;;;;1.17;1.17;;;;;;;;;;4907063;29;20546;-91
2024/03/23 03:11:02;;;;;;;0.40;0.40;;;;;;;;;;4922342;29;20205;-89
2024/03/23 03:13:28;;;;;;;0.50;0.50;;;;;;;;;;4921793;29;20762;-93
2024/03/23 03:15:54;;;;;;;0.30;0.30;;;;;;;;;;4921384;29;20230;-91
2024/03/23 03:18:20;;;;;;;13.20;2.53;;;;;;;;;;4921164;29;20249;-91
2024/03/23 03:20:46;;;;;;;0.30;0.30;;;;;;;;;;4921893;29;20217;-91
2024/03/23 03:23:12;;;;;;;1.37;1.37;;;;;;;;;;4918466;29;20230;-91
2024/03/23 03:25:39;;;;;;;0.93;0.93;;;;;;;;;;4885872;29;20787;-88
2024/03/23 03:28:05;;;;;;;0.83;0.83;;;;;;;;;;4886598;29;20329;-90
2024/03/23 03:30:32;;;;;;;1.47;1.37;;;;;;;;;;4917739;29;20230;-89
2024/03/23 03:32:58;;;;;;;0.83;0.50;;;;;;;;;;4917260;29;20286;-91
2024/03/23 03:35:24;;;;;;;4.03;0.57;;;;;;;;;;4887036;29;20207;-92
2024/03/23 03:37:50;;;;;;;0.73;0.50;;;;;;;;;;4885512;29;20242;-89
2024/03/23 03:40:16;;;;;;;1.07;0.97;;;;;;;;;;4861827;29;20246;-88
2024/03/23 03:42:42;;;;;;;0.43;0.43;;;;;;;;;;4917050;29;20729;-90
2024/03/23 03:45:09;;;;;;;1.70;0.83;;;;;;;;;;4885904;29;20254;-91
2024/03/23 03:47:35;;;;;;;0.70;0.70;;;;;;;;;;4885622;29;20210;-89
2024/03/23 03:50:04;;;;;;;3.50;1.83;;;;;;;;;;4917758;29;20643;-88
2024/03/23 03:52:30;;;;;;;0.23;0.23;;;;;;;;;;4885801;29;20812;-88
2024/03/23 03:55:02;;;;;;;2.57;1.07;;;;;;;;;;4932265;29;20578;-90
2024/03/23 03:57:28;;;;;;;2.60;1.30;;;;;;;;;;4937053;29;20269;-89
2024/03/23 03:59:57;;;;;;;1.40;0.83;;;;;;;;;;4921607;29;20736;-90
2024/03/23 04:02:23;;;;;;;2.67;1.93;;;;;;;;;;4937922;29;20623;-92
2024/03/23 04:04:49;;;;;;;11.23;1.90;;;;;;;;;;4920391;29;20733;-91
2024/03/23 04:07:17;;;;;;;1.03;1.00;;;;;;;;;;4921244;29;20344;-88
2024/03/23 04:09:46;;;;;;;0.90;0.90;;;;;;;;;;4936939;29;20239;-90
2024/03/23 04:12:12;;;;;;;1.63;1.43;;;;;;;;;;4920368;29;20742;-90
2024/03/23 04:14:38;;;;;;;7.23;0.60;;;;;;;;;;4936733;29;20206;-91
2024/03/23 04:17:07;;;;;;;0.70;0.60;;;;;;;;;;4920963;29;20237;-91
2024/03/23 04:19:33;;;;;;;3.70;0.87;;;;;;;;;;4920206;29;20242;-90
2024/03/23 04:22:03;;;;;;;1.13;0.50;;;;;;;;;;4913031;29;20288;-91
2024/03/23 04:24:30;;;;;;;1.17;0.47;;;;;;;;;;4920367;29;20257;-90
2024/03/23 04:26:58;;;;;;;0.60;0.60;;;;;;;;;;4927979;29;20336;-89
2024/03/23 04:29:26;;;;;;;0.30;0.30;;;;;;;;;;4920761;29;20217;-90
2024/03/23 04:31:53;;;;;;;0.20;0.20;;;;;;;;;;4936061;29;20241;-90
2024/03/23 04:34:19;;;;;;;0.30;0.30;;;;;;;;;;4935568;29;20285;-89
2024/03/23 04:36:45;;;;;;;0.10;0.10;;;;;;;;;;4920033;29;20316;-91
2024/03/23 04:39:14;;;;;;;0.70;0.70;;;;;;;;;;4912065;29;20245;-91
2024/03/23 04:41:43;;;;;;;0.23;0.23;;;;;;;;;;4912746;28;20233;-92
2024/03/23 04:44:10;;;;;;;2.73;1.33;;;;;;;;;;4921181;29;20297;-92
2024/03/23 04:46:38;;;;;;;0.77;0.47;;;;;;;;;;4920111;29;20286;-91
2024/03/23 04:49:05;;;;;;;0.50;0.50;;;;;;;;;;4919599;29;20238;-92
2024/03/23 04:51:37;;;;;;;23.93;2.67;;;;;;;;;;4912684;29;20240;-90
2024/03/23 04:54:04;;;;;;;0.50;0.50;;;;;;;;;;4920245;29;20238;-91
2024/03/23 04:56:31;;;;;;;0.70;0.70;;;;;;;;;;4936397;29;20257;-91
2024/03/23 04:59:01;;;;;;;0.60;0.60;;;;;;;;;;4920403;29;20238;-91
2024/03/23 05:01:30;;;;;;;0.20;0.20;;;;;;;;;;4919797;29;20238;-92
2024/03/23 05:03:57;;;;;;;0.20;0.20;;;;;;;;;;4919933;29;20300;-90
2024/03/23 05:06:23;;;;;;;0.20;0.20;;;;;;;;;;4919470;29;20312;-89
2024/03/23 05:08:49;;;;;;;0.47;0.47;;;;;;;;;;4920163;29;20240;-88
2024/03/23 05:11:16;;;;;;;0.20;0.20;;;;;;;;;;4920700;29;20608;-91
2024/03/23 05:13:42;;;;;;;0.10;0.10;;;;;;;;;;4936122;29;20302;-91
2024/03/23 05:16:08;;;;;;;0.20;0.20;;;;;;;;;;4904042;29;20241;-91
2024/03/23 05:18:35;;;;;;;1.27;1.27;;;;;;;;;;4919596;29;20249;-89
2024/03/23 05:21:01;;;;;;;0.30;0.30;;;;;;;;;;4919273;29;20233;-90
2024/03/23 05:23:28;;;;;;;0.77;0.30;;;;;;;;;;4919353;29;20221;-88
2024/03/23 05:25:58;;;;;;;0.50;0.50;;;;;;;;;;4920119;29;20202;-90
2024/03/23 05:28:24;;;;;;;6.03;1.80;;;;;;;;;;4919262;29;20689;-88
2024/03/23 05:30:51;;;;;;;0.73;0.33;;;;;;;;;;4918735;29;20245;-89
2024/03/23 05:33:27;;;;;;;2.20;1.37;;;;;;;;;;4935365;29;20241;-89
2024/03/23 05:36:00;;;;;;;0.20;0.20;;;;;;;;;;4919971;29;20233;-89
2024/03/23 05:38:26;;;;;;;0.30;0.30;;;;;;;;;;4920406;29;20229;-92
2024/03/23 05:41:07;;;;;;;3.10;0.87;;;;;;;;;;4935787;29;20677;-92
2024/03/23 05:43:36;;;;;;;0.30;0.30;;;;;;;;;;4919439;29;20245;-90
2024/03/23 05:46:02;;;;;;;1.43;1.33;;;;;;;;;;4919385;29;20238;-91
2024/03/23 05:48:30;;;;;;;1.50;1.40;;;;;;;;;;4919308;29;20336;-89
2024/03/23 05:50:56;;;;;;;1.63;1.63;;;;;;;;;;4919359;29;20237;-89
2024/03/23 05:53:29;;;;;;;1.90;0.77;;;;;;;;;;4921074;29;20205;-90
2024/03/23 05:56:06;;;;;;;0.17;0.17;;;;;;;;;;4904322;29;20293;-89
2024/03/23 05:58:33;;;;;;;0.63;0.63;;;;;;;;;;4934506;29;20243;-91
2024/03/23 06:01:01;;;;;;;0.30;0.30;;;;;;;;;;4913095;29;20248;-90
2024/03/23 06:03:30;;;;;;;0.40;0.40;;;;;;;;;;4935013;29;20248;-90
2024/03/23 06:05:56;;;;;;;1.80;0.47;;;;;;;;;;4934904;29;20285;-90
2024/03/23 06:08:24;;;;;;;0.60;0.60;;;;;;;;;;4935865;29;20206;-91
2024/03/23 06:10:50;;;;;;;6.80;3.83;;;;;;;;;;4918648;29;20234;-90
2024/03/23 06:13:17;;;;;;;5.17;0.80;;;;;;;;;;4918790;29;20244;-91
2024/03/23 06:15:43;;;;;;;1.20;1.10;;;;;;;;;;4935623;29;20238;-91
2024/03/23 06:18:12;;;;;;;4.77;0.80;;;;;;;;;;4919483;29;20334;-89
2024/03/23 06:20:41;;;;;;;0.30;0.30;;;;;;;;;;4930817;29;20201;-91
2024/03/23 06:23:07;;;;;;;0.53;0.53;;;;;;;;;;4923676;29;20682;-91
2024/03/23 06:25:33;;;;;;;1.00;1.00;;;;;;;;;;4922840;29;20263;-92
2024/03/23 06:28:01;;;;;;;0.30;0.30;;;;;;;;;;4922987;29;20272;-91
2024/03/23 06:30:27;;;;;;;1.67;1.17;;;;;;;;;;4917128;29;20245;-87
2024/03/23 06:32:56;;;;;;;1.10;0.83;;;;;;;;;;4917856;29;20232;-91
2024/03/23 06:35:25;;;;;;;0.73;0.47;;;;;;;;;;4909480;29;20276;-90
2024/03/23 06:38:02;;;;;;;0.47;0.47;;;;;;;;;;4914751;29;20713;-91
2024/03/23 06:40:31;;;;;;;0.50;0.50;;;;;;;;;;4917891;29;20787;-91
2024/03/23 06:42:58;;;;;;;0.57;0.57;;;;;;;;;;4907462;29;20316;-91
2024/03/23 06:45:26;;;;;;;0.60;0.50;;;;;;;;;;4916074;29;20234;-88
2024/03/23 06:47:52;;;;;;;0.43;0.43;;;;;;;;;;4923246;29;20259;-92
2024/03/23 06:50:22;;;;;;;1.67;1.57;;;;;;;;;;4908812;29;20293;-90
2024/03/23 06:52:48;;;;;;;1.47;0.93;;;;;;;;;;4924235;29;20694;-89
2024/03/23 06:55:25;;;;;;;0.83;0.80;;;;;;;;;;4950514;28;20230;-89
2024/03/23 07:01:42;;;;;;;11.23;1.27;;;;;;;;;;4917895;28;20282;-90
2024/03/23 07:04:08;;;;;;;0.50;0.50;;;;;;;;;;4937969;29;20265;-90
2024/03/23 07:06:35;;;;;;;2.30;0.83;;;;;;;;;;4899055;29;20254;-90
2024/03/23 07:09:01;;;;;;;1.40;0.80;;;;;;;;;;4907178;29;20288;-91
2024/03/23 07:11:32;;;;;;;0.37;0.37;;;;;;;;;;4921218;29;20670;-92
2024/03/23 07:13:58;;;;;;;0.27;0.27;;;;;;;;;;4921856;29;20615;-90
2024/03/23 07:16:26;;;;;;;1.40;0.40;;;;;;;;;;4921629;29;20242;-92
2024/03/23 07:18:53;;;;;;;0.20;0.20;;;;;;;;;;4921562;29;20265;-90
2024/03/23 07:21:19;;;;;;;0.37;0.37;;;;;;;;;;4915208;29;20241;-93
2024/03/23 07:23:45;;;;;;;0.30;0.30;;;;;;;;;;4921485;29;20212;-93
2024/03/23 07:26:11;;;;;;;0.40;0.40;;;;;;;;;;4921618;29;20209;-89
2024/03/23 07:28:38;;;;;;;6.50;0.57;;;;;;;;;;4921512;29;20241;-93
2024/03/23 07:31:08;;;;;;;1.00;1.00;;;;;;;;;;4915486;29;20253;-92
2024/03/23 07:33:34;;;;;;;0.40;0.40;;;;;;;;;;4937498;29;20234;-92
2024/03/23 07:36:03;;;;;;;0.60;0.60;;;;;;;;;;4921250;29;20270;-91
2024/03/23 07:38:32;;;;;;;0.10;0.10;;;;;;;;;;4905531;29;20237;-92
2024/03/23 07:41:13;;;;;;;0.77;0.40;;;;;;;;;;4938288;29;20288;-91
2024/03/23 07:43:43;;;;;;;0.50;0.50;;;;;;;;;;4928219;29;20751;-94
2024/03/23 07:46:09;;;;;;;0.37;0.37;;;;;;;;;;4920912;29;20304;-92
2024/03/23 07:48:39;;;;;;;13.73;1.40;;;;;;;;;;4921531;29;20240;-91
2024/03/23 07:51:08;;;;;;;2.07;0.80;;;;;;;;;;4936941;29;20245;-93
2024/03/23 07:53:34;;;;;;;5.20;1.07;;;;;;;;;;4921397;29;20647;-90
2024/03/23 07:56:06;;;;;;;4.97;1.80;;;;;;;;;;4922970;29;20226;-90
2024/03/23 07:58:36;;;;;;;1.00;0.50;;;;;;;;;;4936352;29;20234;-90
2024/03/23 08:01:18;;;;;;;1.57;0.60;;;;;;;;;;4915173;29;20248;-90
2024/03/23 08:03:49;;;;;;;0.20;0.20;;;;;;;;;;4921518;29;20344;-93
2024/03/23 08:06:23;;;;;;;0.70;0.70;;;;;;;;;;4920675;29;20242;-86
2024/03/23 08:08:59;;;;;;;2.90;0.97;;;;;;;;;;4921346;29;20559;-87
2024/03/23 08:11:31;;;;;;;0.77;0.77;;;;;;;;;;4921846;29;20214;-92
2024/03/23 08:14:15;;;;;;;7.53;1.93;;;;;;;;;;4921383;29;20242;-92
2024/03/23 08:16:48;;;;;;;2.77;1.17;;;;;;;;;;4920244;29;20234;-90
2024/03/23 08:19:15;;;;;;;0.33;0.33;;;;;;;;;;4914015;29;20275;-92
2024/03/23 08:21:43;;;;;;;1.70;0.43;;;;;;;;;;4920019;29;20284;-88
2024/03/23 08:24:09;;;;;;;0.33;0.33;;;;;;;;;;4920679;29;20238;-88
2024/03/23 08:26:37;;;;;;;5.57;0.97;;;;;;;;;;4900803;29;20305;-89
2024/03/23 08:29:03;;;;;;;8.23;0.73;;;;;;;;;;4885442;29;20223;-88
2024/03/23 08:31:37;;;;;;;0.30;0.30;;;;;;;;;;4885391;29;20687;-89
2024/03/23 08:34:03;;;;;;;0.20;0.20;;;;;;;;;;4886114;29;20234;-89
2024/03/23 08:36:35;;;;;;;0.73;0.47;;;;;;;;;;4887439;29;20238;-91
2024/03/23 08:39:07;;;;;;;0.20;0.20;;;;;;;;;;4887073;29;20249;-92
2024/03/23 08:41:33;;;;;;;0.20;0.20;;;;;;;;;;4901389;29;20264;-93
2024/03/23 08:44:00;;;;;;;1.37;1.23;;;;;;;;;;4886832;29;20322;-92
2024/03/23 08:46:27;;;;;;;0.50;0.50;;;;;;;;;;4885959;29;20277;-92
2024/03/23 08:48:53;;;;;;;0.33;0.33;;;;;;;;;;4901204;29;20250;-92
2024/03/23 08:51:39;;;;;;;0.27;0.27;;;;;;;;;;4877067;29;20258;-92
2024/03/23 08:57:23;;;;;;;1.10;1.03;;;;;;;;;;4876577;29;20238;-93
2024/03/23 08:59:49;;;;;;;4.87;0.70;;;;;;;;;;4898527;29;20329;-93
2024/03/23 09:02:18;;;;;;;0.70;0.50;;;;;;;;;;4885835;29;20214;-92
2024/03/23 09:04:45;;;;;;;0.37;0.27;;;;;;;;;;4912163;29;20244;-89
2024/03/23 09:07:14;;;;;;;0.30;0.30;;;;;;;;;;4920558;29;20317;-92
2024/03/23 09:09:40;;;;;;;1.07;0.73;;;;;;;;;;4920528;29;20677;-93
2024/03/23 09:12:09;;;;;;;1.00;0.77;;;;;;;;;;4920792;29;20245;-92
2024/03/23 09:14:45;;;;;;;0.73;0.30;;;;;;;;;;4920868;29;20210;-92
2024/03/23 09:17:14;;;;;;;1.60;0.73;;;;;;;;;;4921728;29;20325;-90
2024/03/23 09:19:46;;;;;;;0.97;0.47;;;;;;;;;;4905295;29;20241;-91
2024/03/23 09:22:12;;;;;;;1.07;1.07;;;;;;;;;;4924052;29;20331;-91
2024/03/23 09:24:39;;;;;;;1.80;0.70;;;;;;;;;;4932825;28;20269;-91
2024/03/23 09:27:08;;;;;;;0.93;0.87;;;;;;;;;;4949794;28;20324;-93
2024/03/23 09:29:34;;;;;;;0.73;0.50;;;;;;;;;;4935751;29;20289;-92
2024/03/23 09:32:00;;;;;;;0.87;0.50;;;;;;;;;;4919795;29;20209;-92
2024/03/23 09:34:26;;;;;;;0.53;0.53;;;;;;;;;;4919827;29;20635;-87
2024/03/23 09:36:53;;;;;;;0.53;0.30;;;;;;;;;;4903777;29;20242;-91
2024/03/23 09:39:19;;;;;;;0.30;0.13;;;;;;;;;;4919785;29;20238;-87
2024/03/23 09:41:46;;;;;;;0.60;0.60;;;;;;;;;;4919285;29;20646;-87
2024/03/23 09:44:12;;;;;;;4.10;0.83;;;;;;;;;;4919899;29;20546;-91
2024/03/23 09:46:39;;;;;;;0.30;0.30;;;;;;;;;;4919221;29;20654;-88
2024/03/23 09:49:08;;;;;;;4.60;1.27;;;;;;;;;;4918873;29;20705;-86
2024/03/23 09:51:36;;;;;;;0.60;0.50;;;;;;;;;;4918897;29;20301;-92
2024/03/23 09:54:02;;;;;;;2.47;2.33;;;;;;;;;;4918420;29;20229;-86
2024/03/23 09:56:28;;;;;;;1.60;1.30;;;;;;;;;;4919421;29;20302;-90
2024/03/23 09:59:02;;;;;;;2.10;1.03;;;;;;;;;;4919177;29;20708;-89
2024/03/23 10:01:29;;;;;;;9.30;0.67;;;;;;;;;;4915100;29;20329;-89
2024/03/23 10:03:56;;;;;;;0.93;0.53;;;;;;;;;;4899239;29;20672;-91
2024/03/23 10:06:26;;;;;;;1.30;1.00;;;;;;;;;;4899550;29;20234;-90
2024/03/23 10:08:54;;;;;;;1.77;1.47;;;;;;;;;;4899265;29;20234;-90
2024/03/23 10:11:21;;;;;;;2.73;1.73;;;;;;;;;;4899765;29;20250;-90
2024/03/23 10:13:47;;;;;;;0.47;0.27;;;;;;;;;;4899680;29;20307;-90
2024/03/23 10:16:21;;;;;;;0.93;0.93;;;;;;;;;;4899438;29;20326;-91
2024/03/23 10:18:50;;;;;;;0.13;0.13;;;;;;;;;;4899169;29;20270;-91
2024/03/23 10:21:19;;;;;;;0.60;0.50;;;;;;;;;;4899802;29;20278;-92
2024/03/23 10:23:46;;;;;;;1.07;1.00;;;;;;;;;;4899488;29;20647;-91
2024/03/23 10:26:17;;;;;;;0.80;0.80;;;;;;;;;;4899902;29;20214;-91
2024/03/23 10:28:57;;;;;;;1.67;1.10;;;;;;;;;;4898969;29;20243;-90
2024/03/23 10:31:25;;;;;;;3.83;0.83;;;;;;;;;;4899130;29;20245;-90
2024/03/23 10:33:53;;;;;;;2.10;1.93;;;;;;;;;;4898939;29;20246;-92
2024/03/23 10:36:20;;;;;;;0.93;0.93;;;;;;;;;;4899272;29;20245;-89
2024/03/23 10:38:47;;;;;;;0.73;0.67;;;;;;;;;;4907819;29;20342;-92
2024/03/23 10:41:13;;;;;;;0.67;0.67;;;;;;;;;;4919824;29;20205;-90
2024/03/23 10:43:40;;;;;;;4.80;1.80;;;;;;;;;;4918358;29;20238;-91
2024/03/23 10:46:06;;;;;;;6.77;0.93;;;;;;;;;;4918869;29;20237;-89
2024/03/23 10:48:33;;;;;;;0.53;0.53;;;;;;;;;;4879944;29;20235;-89
2024/03/23 10:51:00;;;;;;;0.63;0.63;;;;;;;;;;4864622;29;20310;-90
2024/03/23 10:53:27;;;;;;;1.33;0.93;;;;;;;;;;4865296;29;20216;-90
2024/03/23 10:55:54;;;;;;;6.90;0.33;;;;;;;;;;4864663;29;21517;-91
2024/03/23 10:58:32;;;;;;;6.10;1.77;;;;;;;;;;4864174;29;20243;-91
2024/03/23 11:00:58;;;;;;;0.80;0.80;;;;;;;;;;4865241;29;20239;-86
2024/03/23 11:03:41;;;;;;;0.40;0.40;;;;;;;;;;4864520;29;20242;-89
2024/03/23 11:06:08;;;;;;;1.70;0.67;;;;;;;;;;4868277;29;20255;-91
2024/03/23 11:08:38;;;;;;;3.20;0.60;;;;;;;;;;4868077;29;20231;-90
2024/03/23 11:11:23;;;;;;;2.40;2.20;;;;;;;;;;4868998;29;20671;-88
2024/03/23 11:13:50;;;;;;;1.37;0.47;;;;;;;;;;4898963;29;20235;-90
2024/03/23 11:16:17;;;;;;;0.40;0.40;;;;;;;;;;4867939;29;20250;-94
2024/03/23 11:18:44;;;;;;;1.93;1.53;;;;;;;;;;4874070;29;20244;-89
2024/03/23 11:21:11;;;;;;;6.33;1.03;;;;;;;;;;4921596;29;20253;-92
2024/03/23 11:23:37;;;;;;;0.20;0.20;;;;;;;;;;4921479;29;20233;-89
2024/03/23 11:26:07;;;;;;;8.03;0.77;;;;;;;;;;4922806;29;20202;-92
2024/03/23 11:28:33;;;;;;;3.80;1.10;;;;;;;;;;4921572;29;20358;-92
2024/03/23 11:30:59;;;;;;;0.40;0.33;;;;;;;;;;4922190;29;20233;-91
2024/03/23 11:33:26;;;;;;;0.77;0.30;;;;;;;;;;4906168;29;20305;-91
2024/03/23 11:35:52;;;;;;;0.33;0.33;;;;;;;;;;4922530;29;20233;-90
2024/03/23 11:38:18;;;;;;;0.53;0.53;;;;;;;;;;4906579;29;20225;-90
2024/03/23 11:40:49;;;;;;;0.87;0.83;;;;;;;;;;4937302;29;20260;-89
2024/03/23 11:43:20;;;;;;;0.40;0.40;;;;;;;;;;4921489;29;20252;-89
2024/03/23 11:45:52;;;;;;;0.83;0.50;;;;;;;;;;4906392;29;20248;-89
2024/03/23 11:48:22;;;;;;;7.73;1.23;;;;;;;;;;4921465;29;20230;-91
2024/03/23 11:50:54;;;;;;;0.83;0.10;;;;;;;;;;4921971;29;20229;-91
2024/03/23 11:53:24;;;;;;;2.37;0.97;;;;;;;;;;4922581;29;20202;-90
2024/03/23 11:55:50;;;;;;;1.47;0.60;;;;;;;;;;4905949;29;20241;-91
2024/03/23 11:58:17;;;;;;;3.80;1.67;;;;;;;;;;4936580;29;20269;-94
2024/03/23 12:00:50;;;;;;;0.20;0.20;;;;;;;;;;4905517;29;20796;-89
2024/03/23 12:03:17;;;;;;;0.87;0.87;;;;;;;;;;4923261;29;20333;-92
2024/03/23 12:05:47;;;;;;;0.97;0.73;;;;;;;;;;4933946;29;20239;-90
2024/03/23 12:08:21;;;;;;;0.50;0.43;;;;;;;;;;4934190;29;20257;-89
2024/03/23 12:10:54;;;;;;;1.17;1.07;;;;;;;;;;4920472;29;20242;-93
2024/03/23 12:13:21;;;;;;;1.33;0.37;;;;;;;;;;4904595;29;20328;-92
2024/03/23 12:15:48;;;;;;;0.10;0.10;;;;;;;;;;4919911;29;20242;-89
2024/03/23 12:18:14;;;;;;;0.40;0.40;;;;;;;;;;4920478;29;20238;-88
2024/03/23 12:20:41;;;;;;;0.30;0.20;;;;;;;;;;4920420;29;20226;-91
2024/03/23 12:23:08;;;;;;;1.80;0.60;;;;;;;;;;4906020;29;20209;-91
2024/03/23 12:25:35;;;;;;;1.97;1.17;;;;;;;;;;4919650;29;20716;-90
2024/03/23 12:28:01;;;;;;;0.40;0.40;;;;;;;;;;4921207;29;20316;-92
2024/03/23 12:30:27;;;;;;;1.53;1.03;;;;;;;;;;4937075;29;20238;-90
2024/03/23 12:32:53;;;;;;;1.97;0.30;;;;;;;;;;4920839;29;20234;-91
2024/03/23 12:35:20;;;;;;;0.83;0.83;;;;;;;;;;4905680;29;20221;-92
2024/03/23 12:37:46;;;;;;;1.03;1.03;;;;;;;;;;4919633;29;20244;-91
2024/03/23 12:40:14;;;;;;;0.30;0.30;;;;;;;;;;4919958;29;20237;-87
2024/03/23 12:42:40;;;;;;;0.50;0.50;;;;;;;;;;4920301;29;20738;-94
2024/03/23 12:45:10;;;;;;;1.10;0.67;;;;;;;;;;4920126;29;20239;-91
2024/03/23 12:47:36;;;;;;;3.07;0.37;;;;;;;;;;4937247;29;20275;-89
2024/03/23 12:50:03;;;;;;;0.57;0.57;;;;;;;;;;4921522;29;20249;-92
2024/03/23 12:52:29;;;;;;;0.10;0.10;;;;;;;;;;4920011;29;20229;-92
2024/03/23 12:54:58;;;;;;;0.40;0.40;;;;;;;;;;4920279;29;20233;-91
2024/03/23 12:57:25;;;;;;;2.63;0.73;;;;;;;;;;4920879;29;20328;-92
2024/03/23 12:59:54;;;;;;;0.30;0.30;;;;;;;;;;4936632;29;20241;-93
2024/03/23 13:02:21;;;;;;;1.73;0.57;;;;;;;;;;4921025;29;20210;-92
2024/03/23 13:04:49;;;;;;;1.63;0.93;;;;;;;;;;4920700;29;20244;-89
2024/03/23 13:07:16;;;;;;;7.63;0.87;;;;;;;;;;4921182;29;20293;-89
2024/03/23 13:09:42;;;;;;;1.30;0.73;;;;;;;;;;4920866;29;20290;-90
2024/03/23 13:12:08;;;;;;;0.20;0.20;;;;;;;;;;4921123;29;20285;-92
2024/03/23 13:14:35;;;;;;;0.30;0.30;;;;;;;;;;4921293;29;20206;-92
2024/03/23 13:17:02;;;;;;;3.97;0.60;;;;;;;;;;4937208;29;20246;-91
2024/03/23 13:19:30;;;;;;;1.10;1.07;;;;;;;;;;4920283;29;20781;-89
2024/03/23 13:21:57;;;;;;;0.47;0.47;;;;;;;;;;4936429;29;20298;-91
2024/03/23 13:24:24;;;;;;;0.67;0.50;;;;;;;;;;4903892;29;20261;-88
2024/03/23 13:26:51;;;;;;;0.60;0.60;;;;;;;;;;4919303;29;20233;-89
2024/03/23 13:29:17;;;;;;;2.27;1.13;;;;;;;;;;4937453;29;20213;-87
2024/03/23 13:31:43;;;;;;;0.40;0.40;;;;;;;;;;4935990;29;20237;-93
2024/03/23 13:34:14;;;;;;;1.27;0.60;;;;;;;;;;4920441;29;20240;-91
2024/03/23 13:36:41;;;;;;;2.37;0.97;;;;;;;;;;4920665;29;20254;-93
2024/03/23 13:39:16;;;;;;;5.30;0.83;;;;;;;;;;4881428;29;20246;-88
2024/03/23 13:41:43;;;;;;;0.77;0.50;;;;;;;;;;4866334;29;20217;-92
2024/03/23 13:44:10;;;;;;;0.77;0.77;;;;;;;;;;4882097;29;20223;-91
2024/03/23 13:46:37;;;;;;;0.50;0.30;;;;;;;;;;4897316;29;20328;-91
2024/03/23 13:49:04;;;;;;;0.53;0.53;;;;;;;;;;4897281;29;20268;-89
2024/03/23 13:51:30;;;;;;;0.80;0.30;;;;;;;;;;4865884;29;20240;-92
2024/03/23 13:54:02;;;;;;;0.30;0.30;;;;;;;;;;4866447;29;20235;-87
2024/03/23 13:56:28;;;;;;;2.53;0.57;;;;;;;;;;4867050;29;20203;-85
2024/03/23 13:58:56;;;;;;;6.63;1.63;;;;;;;;;;4866541;29;20315;-89
2024/03/23 14:01:22;;;;;;;0.73;0.60;;;;;;;;;;4866483;29;20243;-91
2024/03/23 14:03:49;;;;;;;0.20;0.20;;;;;;;;;;4881946;29;20245;-91
2024/03/23 14:06:15;;;;;;;0.30;0.30;;;;;;;;;;4867005;29;20267;-88
2024/03/23 14:08:43;;;;;;;0.40;0.40;;;;;;;;;;4859285;29;20204;-91
2024/03/23 14:11:10;;;;;;;0.40;0.40;;;;;;;;;;4917023;29;20269;-91
2024/03/23 14:13:40;;;;;;;1.20;0.43;;;;;;;;;;4920114;29;20253;-88
2024/03/23 14:16:06;;;;;;;0.67;0.67;;;;;;;;;;4935837;29;20253;-88
2024/03/23 14:18:32;;;;;;;0.30;0.30;;;;;;;;;;4919343;29;20277;-90
2024/03/23 14:20:59;;;;;;;1.07;0.33;;;;;;;;;;4919667;29;20230;-93
2024/03/23 14:23:26;;;;;;;0.83;0.83;;;;;;;;;;4921137;29;20210;-92
2024/03/23 14:25:56;;;;;;;0.27;0.27;;;;;;;;;;4915947;29;20234;-89
2024/03/23 14:28:23;;;;;;;0.43;0.43;;;;;;;;;;4899609;29;20234;-91
2024/03/23 14:30:53;;;;;;;0.80;0.80;;;;;;;;;;4900331;29;20250;-89
2024/03/23 14:33:19;;;;;;;3.77;0.40;;;;;;;;;;4900534;29;20242;-90
2024/03/23 14:35:57;;;;;;;2.83;2.73;;;;;;;;;;4915614;29;20565;-89
2024/03/23 14:38:26;;;;;;;2.00;0.80;;;;;;;;;;4900572;29;20571;-89
2024/03/23 14:40:52;;;;;;;3.70;1.37;;;;;;;;;;4872535;29;20738;-88
2024/03/23 14:43:18;;;;;;;3.40;1.80;;;;;;;;;;4920087;29;20242;-92
2024/03/23 14:46:03;;;;;;;0.60;0.60;;;;;;;;;;4874905;29;20238;-87
2024/03/23 14:48:29;;;;;;;0.30;0.30;;;;;;;;;;4936052;29;20294;-91
2024/03/23 14:50:59;;;;;;;0.30;0.30;;;;;;;;;;4881148;29;20269;-89
2024/03/23 14:53:26;;;;;;;0.77;0.70;;;;;;;;;;4920355;29;20654;-90